sensor_id;sensor_type;location;lat;lon;timestamp;temperature;humidity
11591;DHT22;5851;54.050;9.974;2024-01-16T00:01:41;-1.20;99.90
11591;DHT22;5851;54.050;9.974;2024-01-16T00:04:11;-1.20;99.90
11591;DHT22;5851;54.050;9.974;2024-01-16T00:06:39;-1.30;99.90
11591;DHT22;5851;54.050;9.974;2024-01-16T00:09:06;-1.20;99.90
11591;DHT22;5851;54.050;9.974;2024-01-16T00:11:33;-1.20;99.90
11591;DHT22;5851;54.050;9.974;2024-01-16T00:14:00;-1.30;99.90
11591;DHT22;5851;54.050;9.974;2024-01-16T00:16:27;-1.20;99.90
11591;DHT22;5851;54.050;9.974;2024-01-16T00:18:54;-1.20;99.90
11591;DHT22;5851;54.050;9.974;2024-01-16T00:21:23;-1.20;99.90
11591;DHT22;5851;54.050;9.974;2024-01-16T00:23:50;-1.30;99.90
11591;DHT22;5851;54.050;9.974;2024-01-16T00:26:20;-1.20;99.90
11591;DHT22;5851;54.050;9.974;2024-01-16T00:28:47;-1.20;99.90
11591;DHT22;5851;54.050;9.974;2024-01-16T00:31:14;-1.20;99.90
11591;DHT22;5851;54.050;9.974;2024-01-16T00:33:41;-1.20;99.90
11591;DHT22;5851;54.050;9.974;2024-01-16T00:36:08;-1.20;99.90
11591;DHT22;5851;54.050;9.974;2024-01-16T00:38:39;-1.10;99.90
11591;DHT22;5851;54.050;9.974;2024-01-16T00:41:06;-1.20;99.90
11591;DHT22;5851;54.050;9.974;2024-01-16T00:43:33;-1.20;99.90
11591;DHT22;5851;54.050;9.974;2024-01-16T00:46:00;-1.20;99.90
11591;DHT22;5851;54.050;9.974;2024-01-16T00:48:27;-1.20;99.90
11591;DHT22;5851;54.050;9.974;2024-01-16T00:50:54;-1.10;99.90
11591;DHT22;5851;54.050;9.974;2024-01-16T00:53:21;-1.10;99.90
11591;DHT22;5851;54.050;9.974;2024-01-16T00:55:50;-1.10;99.90
11591;DHT22;5851;54.050;9.974;2024-01-16T00:58:17;-1.10;99.90
11591;DHT22;5851;54.050;9.974;2024-01-16T01:00:44;-1.10;99.90
11591;DHT22;5851;54.050;9.974;2024-01-16T01:03:11;-1.20;99.90
11591;DHT22;5851;54.050;9.974;2024-01-16T01:05:38;-1.20;99.90
11591;DHT22;5851;54.050;9.974;2024-01-16T01:08:06;-1.30;99.90
11591;DHT22;5851;54.050;9.974;2024-01-16T01:10:33;-1.30;99.90
11591;DHT22;5851;54.050;9.974;2024-01-16T01:13:01;-1.20;99.90
11591;DHT22;5851;54.050;9.974;2024-01-16T01:15:28;-1.20;99.90
11591;DHT22;5851;54.050;9.974;2024-01-16T01:17:56;-1.30;99.90
11591;DHT22;5851;54.050;9.974;2024-01-16T01:20:22;-1.40;99.90
11591;DHT22;5851;54.050;9.974;2024-01-16T01:22:50;-1.50;99.90
11591;DHT22;5851;54.050;9.974;2024-01-16T01:25:17;-1.30;99.90
11591;DHT22;5851;54.050;9.974;2024-01-16T01:27:44;-1.30;99.90
11591;DHT22;5851;54.050;9.974;2024-01-16T01:30:12;-1.30;99.90
11591;DHT22;5851;54.050;9.974;2024-01-16T01:32:39;-1.10;99.90
11591;DHT22;5851;54.050;9.974;2024-01-16T01:35:07;-1.00;99.90
11591;DHT22;5851;54.050;9.974;2024-01-16T01:37:34;-1.00;99.90
11591;DHT22;5851;54.050;9.974;2024-01-16T01:40:01;-1.30;99.90
11591;DHT22;5851;54.050;9.974;2024-01-16T01:42:28;-1.10;99.90
11591;DHT22;5851;54.050;9.974;2024-01-16T01:44:55;-1.30;99.90
11591;DHT22;5851;54.050;9.974;2024-01-16T01:47:24;-1.50;99.90
11591;DHT22;5851;54.050;9.974;2024-01-16T01:49:51;-1.50;99.90
11591;DHT22;5851;54.050;9.974;2024-01-16T01:52:18;-1.30;99.90
11591;DHT22;5851;54.050;9.974;2024-01-16T01:54:45;-1.30;99.90
11591;DHT22;5851;54.050;9.974;2024-01-16T01:57:13;-1.40;99.90
11591;DHT22;5851;54.050;9.974;2024-01-16T01:59:40;-1.50;99.90
11591;DHT22;5851;54.050;9.974;2024-01-16T02:02:07;-1.40;99.90
11591;DHT22;5851;54.050;9.974;2024-01-16T02:04:36;-1.40;99.90
11591;DHT22;5851;54.050;9.974;2024-01-16T02:07:05;-1.50;99.90
11591;DHT22;5851;54.050;9.974;2024-01-16T02:09:32;-1.60;99.90
11591;DHT22;5851;54.050;9.974;2024-01-16T02:12:00;-1.90;99.90
11591;DHT22;5851;54.050;9.974;2024-01-16T02:14:27;-2.10;99.90
11591;DHT22;5851;54.050;9.974;2024-01-16T02:16:54;-2.10;99.90
11591;DHT22;5851;54.050;9.974;2024-01-16T02:19:21;-2.00;99.90
11591;DHT22;5851;54.050;9.974;2024-01-16T02:21:54;-1.80;99.90
11591;DHT22;5851;54.050;9.974;2024-01-16T02:24:25;-1.80;99.90
11591;DHT22;5851;54.050;9.974;2024-01-16T02:26:53;-1.80;99.90
11591;DHT22;5851;54.050;9.974;2024-01-16T02:29:20;-1.90;99.90
11591;DHT22;5851;54.050;9.974;2024-01-16T02:31:47;-1.90;99.90
11591;DHT22;5851;54.050;9.974;2024-01-16T02:34:14;-1.90;99.90
11591;DHT22;5851;54.050;9.974;2024-01-16T02:36:41;-2.00;99.90
11591;DHT22;5851;54.050;9.974;2024-01-16T02:39:08;-2.10;99.90
11591;DHT22;5851;54.050;9.974;2024-01-16T02:41:36;-2.20;99.90
11591;DHT22;5851;54.050;9.974;2024-01-16T02:44:04;-2.30;99.90
11591;DHT22;5851;54.050;9.974;2024-01-16T02:46:30;-2.40;99.90
11591;DHT22;5851;54.050;9.974;2024-01-16T02:48:58;-2.40;99.90
11591;DHT22;5851;54.050;9.974;2024-01-16T02:51:25;-2.40;99.90
11591;DHT22;5851;54.050;9.974;2024-01-16T02:53:52;-2.50;99.90
11591;DHT22;5851;54.050;9.974;2024-01-16T02:56:19;-2.30;99.90
11591;DHT22;5851;54.050;9.974;2024-01-16T02:58:47;-2.30;99.90
11591;DHT22;5851;54.050;9.974;2024-01-16T03:01:14;-2.50;99.90
11591;DHT22;5851;54.050;9.974;2024-01-16T03:03:41;-2.40;99.90
11591;DHT22;5851;54.050;9.974;2024-01-16T03:06:08;-2.50;99.90
11591;DHT22;5851;54.050;9.974;2024-01-16T03:08:35;-2.50;99.90
11591;DHT22;5851;54.050;9.974;2024-01-16T03:11:02;-2.60;99.90
11591;DHT22;5851;54.050;9.974;2024-01-16T03:13:29;-2.70;99.90
11591;DHT22;5851;54.050;9.974;2024-01-16T03:15:57;-2.70;99.90
11591;DHT22;5851;54.050;9.974;2024-01-16T03:18:24;-2.80;99.90
11591;DHT22;5851;54.050;9.974;2024-01-16T03:20:51;-2.90;99.90
11591;DHT22;5851;54.050;9.974;2024-01-16T03:23:18;-2.90;99.90
11591;DHT22;5851;54.050;9.974;2024-01-16T03:25:45;-2.90;99.90
11591;DHT22;5851;54.050;9.974;2024-01-16T03:28:12;-2.90;99.90
11591;DHT22;5851;54.050;9.974;2024-01-16T03:30:39;-2.90;99.90
11591;DHT22;5851;54.050;9.974;2024-01-16T03:33:08;-2.90;99.90
11591;DHT22;5851;54.050;9.974;2024-01-16T03:35:35;-2.90;99.90
11591;DHT22;5851;54.050;9.974;2024-01-16T03:38:02;-3.00;99.90
11591;DHT22;5851;54.050;9.974;2024-01-16T03:40:29;-3.00;99.90
11591;DHT22;5851;54.050;9.974;2024-01-16T03:42:59;-2.90;99.90
11591;DHT22;5851;54.050;9.974;2024-01-16T03:45:26;-2.90;99.90
11591;DHT22;5851;54.050;9.974;2024-01-16T03:47:52;-2.80;99.90
11591;DHT22;5851;54.050;9.974;2024-01-16T03:50:20;-2.60;99.90
11591;DHT22;5851;54.050;9.974;2024-01-16T03:52:47;-2.30;99.90
11591;DHT22;5851;54.050;9.974;2024-01-16T03:55:14;-2.30;99.90
11591;DHT22;5851;54.050;9.974;2024-01-16T03:57:41;-2.60;99.90
11591;DHT22;5851;54.050;9.974;2024-01-16T04:00:11;-2.70;99.90
11591;DHT22;5851;54.050;9.974;2024-01-16T04:02:39;-2.70;99.90
11591;DHT22;5851;54.050;9.974;2024-01-16T04:05:07;-2.60;99.90
11591;DHT22;5851;54.050;9.974;2024-01-16T04:07:35;-2.50;99.90
11591;DHT22;5851;54.050;9.974;2024-01-16T04:10:02;-2.40;99.90
11591;DHT22;5851;54.050;9.974;2024-01-16T04:12:30;-2.30;99.90
11591;DHT22;5851;54.050;9.974;2024-01-16T04:14:57;-2.30;99.90
11591;DHT22;5851;54.050;9.974;2024-01-16T04:17:24;-2.20;99.90
11591;DHT22;5851;54.050;9.974;2024-01-16T04:19:51;-2.00;99.90
11591;DHT22;5851;54.050;9.974;2024-01-16T04:22:18;-1.90;99.90
11591;DHT22;5851;54.050;9.974;2024-01-16T04:24:46;-1.80;99.90
11591;DHT22;5851;54.050;9.974;2024-01-16T04:27:13;-2.00;99.90
11591;DHT22;5851;54.050;9.974;2024-01-16T04:29:40;-2.00;99.90
11591;DHT22;5851;54.050;9.974;2024-01-16T04:32:09;-2.10;99.90
11591;DHT22;5851;54.050;9.974;2024-01-16T04:34:35;-2.10;99.90
11591;DHT22;5851;54.050;9.974;2024-01-16T04:37:03;-2.20;99.90
11591;DHT22;5851;54.050;9.974;2024-01-16T04:39:30;-2.40;99.90
11591;DHT22;5851;54.050;9.974;2024-01-16T04:41:58;-2.30;99.90
11591;DHT22;5851;54.050;9.974;2024-01-16T04:44:25;-2.00;99.90
11591;DHT22;5851;54.050;9.974;2024-01-16T04:46:52;-1.90;99.90
11591;DHT22;5851;54.050;9.974;2024-01-16T04:49:19;-2.00;99.90
11591;DHT22;5851;54.050;9.974;2024-01-16T04:51:46;-1.80;99.90
11591;DHT22;5851;54.050;9.974;2024-01-16T04:54:13;-1.60;99.90
11591;DHT22;5851;54.050;9.974;2024-01-16T04:56:40;-1.60;99.90
11591;DHT22;5851;54.050;9.974;2024-01-16T04:59:08;-1.50;99.90
11591;DHT22;5851;54.050;9.974;2024-01-16T05:01:35;-1.50;99.90
11591;DHT22;5851;54.050;9.974;2024-01-16T05:04:03;-1.60;99.90
11591;DHT22;5851;54.050;9.974;2024-01-16T05:06:30;-1.70;99.90
11591;DHT22;5851;54.050;9.974;2024-01-16T05:08:57;-1.50;99.90
11591;DHT22;5851;54.050;9.974;2024-01-16T05:11:24;-1.60;99.90
11591;DHT22;5851;54.050;9.974;2024-01-16T05:13:51;-1.40;99.90
11591;DHT22;5851;54.050;9.974;2024-01-16T05:16:24;-1.30;99.90
11591;DHT22;5851;54.050;9.974;2024-01-16T05:18:51;-1.20;99.90
11591;DHT22;5851;54.050;9.974;2024-01-16T05:21:18;-1.20;99.90
11591;DHT22;5851;54.050;9.974;2024-01-16T05:23:45;-1.40;99.90
11591;DHT22;5851;54.050;9.974;2024-01-16T05:26:12;-1.30;99.90
11591;DHT22;5851;54.050;9.974;2024-01-16T05:28:39;-1.10;99.90
11591;DHT22;5851;54.050;9.974;2024-01-16T05:31:06;-1.30;99.90
11591;DHT22;5851;54.050;9.974;2024-01-16T05:33:35;-1.40;99.90
11591;DHT22;5851;54.050;9.974;2024-01-16T05:36:03;-1.30;99.90
11591;DHT22;5851;54.050;9.974;2024-01-16T05:38:30;-1.50;99.90
11591;DHT22;5851;54.050;9.974;2024-01-16T05:40:57;-1.50;99.90
11591;DHT22;5851;54.050;9.974;2024-01-16T05:43:24;-1.40;99.90
11591;DHT22;5851;54.050;9.974;2024-01-16T05:45:51;-1.10;99.90
11591;DHT22;5851;54.050;9.974;2024-01-16T05:48:17;-1.10;99.90
11591;DHT22;5851;54.050;9.974;2024-01-16T05:50:46;-1.20;99.90
11591;DHT22;5851;54.050;9.974;2024-01-16T05:53:13;-1.50;99.90
11591;DHT22;5851;54.050;9.974;2024-01-16T05:55:40;-1.20;99.90
11591;DHT22;5851;54.050;9.974;2024-01-16T05:58:07;-1.10;99.90
11591;DHT22;5851;54.050;9.974;2024-01-16T06:00:34;-1.20;99.90
11591;DHT22;5851;54.050;9.974;2024-01-16T06:03:01;-1.10;99.90
11591;DHT22;5851;54.050;9.974;2024-01-16T06:05:28;-1.00;99.90
11591;DHT22;5851;54.050;9.974;2024-01-16T06:07:56;-0.90;99.90
11591;DHT22;5851;54.050;9.974;2024-01-16T06:10:23;-1.20;99.90
11591;DHT22;5851;54.050;9.974;2024-01-16T06:12:50;-1.20;99.90
11591;DHT22;5851;54.050;9.974;2024-01-16T06:15:17;-1.00;99.90
11591;DHT22;5851;54.050;9.974;2024-01-16T06:17:44;-0.90;99.90
11591;DHT22;5851;54.050;9.974;2024-01-16T06:20:11;-0.80;99.90
11591;DHT22;5851;54.050;9.974;2024-01-16T06:22:38;-0.80;99.90
11591;DHT22;5851;54.050;9.974;2024-01-16T06:25:07;-0.80;99.90
11591;DHT22;5851;54.050;9.974;2024-01-16T06:27:34;-0.80;99.90
11591;DHT22;5851;54.050;9.974;2024-01-16T06:30:01;-0.80;99.90
11591;DHT22;5851;54.050;9.974;2024-01-16T06:32:29;-0.90;99.90
11591;DHT22;5851;54.050;9.974;2024-01-16T06:34:56;-0.90;99.90
11591;DHT22;5851;54.050;9.974;2024-01-16T06:37:25;-0.90;99.90
11591;DHT22;5851;54.050;9.974;2024-01-16T06:39:52;-0.90;99.90
11591;DHT22;5851;54.050;9.974;2024-01-16T06:42:21;-0.90;99.90
11591;DHT22;5851;54.050;9.974;2024-01-16T06:44:48;-0.90;99.90
11591;DHT22;5851;54.050;9.974;2024-01-16T06:47:15;-0.90;99.90
11591;DHT22;5851;54.050;9.974;2024-01-16T06:49:41;-0.90;99.90
11591;DHT22;5851;54.050;9.974;2024-01-16T06:52:08;-0.80;99.90
11591;DHT22;5851;54.050;9.974;2024-01-16T06:54:35;-0.60;99.90
11591;DHT22;5851;54.050;9.974;2024-01-16T06:57:03;-0.60;99.90
11591;DHT22;5851;54.050;9.974;2024-01-16T06:59:31;-0.60;99.90
11591;DHT22;5851;54.050;9.974;2024-01-16T07:01:58;-0.60;99.90
11591;DHT22;5851;54.050;9.974;2024-01-16T07:04:25;-0.60;99.90
11591;DHT22;5851;54.050;9.974;2024-01-16T07:06:52;-0.60;99.90
11591;DHT22;5851;54.050;9.974;2024-01-16T07:09:19;-0.60;99.90
11591;DHT22;5851;54.050;9.974;2024-01-16T07:11:46;-0.70;99.90
11591;DHT22;5851;54.050;9.974;2024-01-16T07:14:13;-0.80;99.90
11591;DHT22;5851;54.050;9.974;2024-01-16T07:16:42;-0.90;99.90
11591;DHT22;5851;54.050;9.974;2024-01-16T07:19:09;-0.70;99.90
11591;DHT22;5851;54.050;9.974;2024-01-16T07:21:37;-0.60;99.90
11591;DHT22;5851;54.050;9.974;2024-01-16T07:24:04;-0.80;99.90
11591;DHT22;5851;54.050;9.974;2024-01-16T07:26:31;-0.70;99.90
11591;DHT22;5851;54.050;9.974;2024-01-16T07:28:59;-0.60;99.90
11591;DHT22;5851;54.050;9.974;2024-01-16T07:31:26;-0.60;99.90
11591;DHT22;5851;54.050;9.974;2024-01-16T07:33:55;-0.60;99.90
11591;DHT22;5851;54.050;9.974;2024-01-16T07:36:22;-0.60;99.90
11591;DHT22;5851;54.050;9.974;2024-01-16T07:38:49;-0.60;99.90
11591;DHT22;5851;54.050;9.974;2024-01-16T07:41:16;-0.60;99.90
11591;DHT22;5851;54.050;9.974;2024-01-16T07:43:42;-0.80;99.90
11591;DHT22;5851;54.050;9.974;2024-01-16T07:46:10;-0.70;99.90
11591;DHT22;5851;54.050;9.974;2024-01-16T07:48:37;-0.70;99.90
11591;DHT22;5851;54.050;9.974;2024-01-16T07:51:05;-0.70;99.90
11591;DHT22;5851;54.050;9.974;2024-01-16T07:53:32;-0.60;99.90
11591;DHT22;5851;54.050;9.974;2024-01-16T07:55:59;-0.60;99.90
11591;DHT22;5851;54.050;9.974;2024-01-16T07:58:26;-0.40;99.90
11591;DHT22;5851;54.050;9.974;2024-01-16T08:00:54;-0.40;99.90
11591;DHT22;5851;54.050;9.974;2024-01-16T08:03:21;-0.50;99.90
11591;DHT22;5851;54.050;9.974;2024-01-16T08:05:48;-0.50;99.90
11591;DHT22;5851;54.050;9.974;2024-01-16T08:08:16;-0.50;99.90
11591;DHT22;5851;54.050;9.974;2024-01-16T08:10:43;-0.70;99.90
11591;DHT22;5851;54.050;9.974;2024-01-16T08:13:10;-0.50;99.90
11591;DHT22;5851;54.050;9.974;2024-01-16T08:15:37;-0.40;99.90
11591;DHT22;5851;54.050;9.974;2024-01-16T08:18:04;-0.40;99.90
11591;DHT22;5851;54.050;9.974;2024-01-16T08:20:31;-0.40;99.90
11591;DHT22;5851;54.050;9.974;2024-01-16T08:22:58;-0.30;99.90
11591;DHT22;5851;54.050;9.974;2024-01-16T08:25:26;-0.20;99.90
11591;DHT22;5851;54.050;9.974;2024-01-16T08:27:53;-0.40;99.90
11591;DHT22;5851;54.050;9.974;2024-01-16T08:30:20;-0.40;99.90
11591;DHT22;5851;54.050;9.974;2024-01-16T08:32:50;-0.40;99.90
11591;DHT22;5851;54.050;9.974;2024-01-16T08:35:17;-0.40;99.90
11591;DHT22;5851;54.050;9.974;2024-01-16T08:37:43;-0.40;99.90
11591;DHT22;5851;54.050;9.974;2024-01-16T08:40:11;-0.50;99.90
11591;DHT22;5851;54.050;9.974;2024-01-16T08:42:39;-0.30;99.90
11591;DHT22;5851;54.050;9.974;2024-01-16T08:45:07;-0.30;99.90
11591;DHT22;5851;54.050;9.974;2024-01-16T08:47:34;-0.20;99.90
11591;DHT22;5851;54.050;9.974;2024-01-16T08:50:04;-0.20;99.90
11591;DHT22;5851;54.050;9.974;2024-01-16T08:52:31;-0.20;99.90
11591;DHT22;5851;54.050;9.974;2024-01-16T08:54:58;-0.20;99.90
11591;DHT22;5851;54.050;9.974;2024-01-16T08:57:25;-0.10;99.90
11591;DHT22;5851;54.050;9.974;2024-01-16T08:59:54;-0.20;99.90
11591;DHT22;5851;54.050;9.974;2024-01-16T09:02:21;-0.20;99.90
11591;DHT22;5851;54.050;9.974;2024-01-16T09:04:48;-0.20;99.90
11591;DHT22;5851;54.050;9.974;2024-01-16T09:07:15;-0.10;99.90
11591;DHT22;5851;54.050;9.974;2024-01-16T09:09:44;-0.10;99.90
11591;DHT22;5851;54.050;9.974;2024-01-16T09:12:11;-0.10;99.90
11591;DHT22;5851;54.050;9.974;2024-01-16T09:14:38;0.00;99.90
11591;DHT22;5851;54.050;9.974;2024-01-16T09:17:06;0.00;99.90
11591;DHT22;5851;54.050;9.974;2024-01-16T09:19:33;-0.10;99.90
11591;DHT22;5851;54.050;9.974;2024-01-16T09:22:00;0.00;99.90
11591;DHT22;5851;54.050;9.974;2024-01-16T09:24:28;0.10;99.90
11591;DHT22;5851;54.050;9.974;2024-01-16T09:26:55;0.10;99.90
11591;DHT22;5851;54.050;9.974;2024-01-16T09:29:23;0.10;99.90
11591;DHT22;5851;54.050;9.974;2024-01-16T09:31:50;0.10;99.90
11591;DHT22;5851;54.050;9.974;2024-01-16T09:34:19;0.10;99.90
11591;DHT22;5851;54.050;9.974;2024-01-16T09:36:46;0.10;99.90
11591;DHT22;5851;54.050;9.974;2024-01-16T09:39:13;0.00;99.90
11591;DHT22;5851;54.050;9.974;2024-01-16T09:41:41;0.00;99.90
11591;DHT22;5851;54.050;9.974;2024-01-16T09:44:08;0.00;99.90
11591;DHT22;5851;54.050;9.974;2024-01-16T09:46:37;0.10;99.90
11591;DHT22;5851;54.050;9.974;2024-01-16T09:49:05;0.20;99.90
11591;DHT22;5851;54.050;9.974;2024-01-16T09:51:34;0.10;99.90
11591;DHT22;5851;54.050;9.974;2024-01-16T09:54:01;0.20;99.90
11591;DHT22;5851;54.050;9.974;2024-01-16T09:56:37;0.10;99.90
11591;DHT22;5851;54.050;9.974;2024-01-16T09:59:06;0.10;99.90
11591;DHT22;5851;54.050;9.974;2024-01-16T10:01:36;0.10;99.90
11591;DHT22;5851;54.050;9.974;2024-01-16T10:04:04;0.10;99.90
11591;DHT22;5851;54.050;9.974;2024-01-16T10:06:33;0.10;99.90
11591;DHT22;5851;54.050;9.974;2024-01-16T10:09:00;0.20;99.90
11591;DHT22;5851;54.050;9.974;2024-01-16T10:11:28;0.20;99.90
11591;DHT22;5851;54.050;9.974;2024-01-16T10:13:56;0.20;99.90
11591;DHT22;5851;54.050;9.974;2024-01-16T10:16:23;0.20;99.90
11591;DHT22;5851;54.050;9.974;2024-01-16T10:19:04;0.30;99.90
11591;DHT22;5851;54.050;9.974;2024-01-16T10:21:31;0.30;99.90
11591;DHT22;5851;54.050;9.974;2024-01-16T10:24:10;0.30;99.90
11591;DHT22;5851;54.050;9.974;2024-01-16T10:26:38;0.30;99.90
11591;DHT22;5851;54.050;9.974;2024-01-16T10:29:05;0.30;99.90
11591;DHT22;5851;54.050;9.974;2024-01-16T10:31:32;0.40;99.90
11591;DHT22;5851;54.050;9.974;2024-01-16T10:33:59;0.40;99.90
11591;DHT22;5851;54.050;9.974;2024-01-16T10:36:26;0.30;99.90
11591;DHT22;5851;54.050;9.974;2024-01-16T10:39:04;0.30;99.90
11591;DHT22;5851;54.050;9.974;2024-01-16T10:41:32;0.30;99.90
11591;DHT22;5851;54.050;9.974;2024-01-16T10:44:04;0.40;99.90
11591;DHT22;5851;54.050;9.974;2024-01-16T10:46:32;0.40;99.90
11591;DHT22;5851;54.050;9.974;2024-01-16T10:49:00;0.40;99.90
11591;DHT22;5851;54.050;9.974;2024-01-16T10:51:28;0.40;99.90
11591;DHT22;5851;54.050;9.974;2024-01-16T10:53:58;0.30;99.90
11591;DHT22;5851;54.050;9.974;2024-01-16T10:56:28;0.40;99.90
11591;DHT22;5851;54.050;9.974;2024-01-16T10:59:03;0.40;99.90
11591;DHT22;5851;54.050;9.974;2024-01-16T11:01:32;0.40;99.90
11591;DHT22;5851;54.050;9.974;2024-01-16T11:04:00;0.40;99.90
11591;DHT22;5851;54.050;9.974;2024-01-16T11:06:28;0.40;99.90
11591;DHT22;5851;54.050;9.974;2024-01-16T11:08:56;0.40;99.90
11591;DHT22;5851;54.050;9.974;2024-01-16T11:11:24;0.40;99.90
11591;DHT22;5851;54.050;9.974;2024-01-16T11:13:54;0.40;99.90
11591;DHT22;5851;54.050;9.974;2024-01-16T11:16:23;0.40;99.90
11591;DHT22;5851;54.050;9.974;2024-01-16T11:18:50;0.50;99.90
11591;DHT22;5851;54.050;9.974;2024-01-16T11:21:17;0.50;99.90
11591;DHT22;5851;54.050;9.974;2024-01-16T11:23:45;0.40;99.90
11591;DHT22;5851;54.050;9.974;2024-01-16T11:26:25;0.40;99.90
11591;DHT22;5851;54.050;9.974;2024-01-16T11:28:53;0.50;99.90
11591;DHT22;5851;54.050;9.974;2024-01-16T11:31:32;0.50;99.90
11591;DHT22;5851;54.050;9.974;2024-01-16T11:33:59;0.50;99.90
11591;DHT22;5851;54.050;9.974;2024-01-16T11:36:54;0.50;99.90
11591;DHT22;5851;54.050;9.974;2024-01-16T11:39:22;0.50;99.90
11591;DHT22;5851;54.050;9.974;2024-01-16T11:41:54;0.60;99.90
11591;DHT22;5851;54.050;9.974;2024-01-16T11:44:41;0.60;99.90
11591;DHT22;5851;54.050;9.974;2024-01-16T11:47:09;0.60;99.90
11591;DHT22;5851;54.050;9.974;2024-01-16T11:49:36;0.50;99.90
11591;DHT22;5851;54.050;9.974;2024-01-16T11:52:04;0.50;99.90
11591;DHT22;5851;54.050;9.974;2024-01-16T11:54:30;0.40;99.90
11591;DHT22;5851;54.050;9.974;2024-01-16T11:57:26;0.50;99.90
11591;DHT22;5851;54.050;9.974;2024-01-16T12:00:02;0.50;99.90
11591;DHT22;5851;54.050;9.974;2024-01-16T12:02:51;0.50;99.90
11591;DHT22;5851;54.050;9.974;2024-01-16T12:05:18;0.60;99.90
11591;DHT22;5851;54.050;9.974;2024-01-16T12:07:46;0.60;99.90
11591;DHT22;5851;54.050;9.974;2024-01-16T12:10:15;0.50;99.90
11591;DHT22;5851;54.050;9.974;2024-01-16T12:12:42;0.60;99.90
11591;DHT22;5851;54.050;9.974;2024-01-16T12:15:15;0.60;99.90
11591;DHT22;5851;54.050;9.974;2024-01-16T12:17:56;0.70;99.90
11591;DHT22;5851;54.050;9.974;2024-01-16T12:20:24;0.60;99.90
11591;DHT22;5851;54.050;9.974;2024-01-16T12:22:55;0.70;99.90
11591;DHT22;5851;54.050;9.974;2024-01-16T12:25:23;0.70;99.90
11591;DHT22;5851;54.050;9.974;2024-01-16T12:27:57;0.70;99.90
11591;DHT22;5851;54.050;9.974;2024-01-16T12:30:26;0.60;99.90
11591;DHT22;5851;54.050;9.974;2024-01-16T12:33:05;0.60;99.90
11591;DHT22;5851;54.050;9.974;2024-01-16T12:35:34;0.60;99.90
11591;DHT22;5851;54.050;9.974;2024-01-16T12:38:02;0.60;99.90
11591;DHT22;5851;54.050;9.974;2024-01-16T12:40:31;0.70;99.90
11591;DHT22;5851;54.050;9.974;2024-01-16T12:42:58;0.60;99.90
11591;DHT22;5851;54.050;9.974;2024-01-16T12:45:27;0.70;99.90
11591;DHT22;5851;54.050;9.974;2024-01-16T12:47:55;0.70;99.90
11591;DHT22;5851;54.050;9.974;2024-01-16T12:50:27;0.70;99.90
11591;DHT22;5851;54.050;9.974;2024-01-16T12:53:04;0.70;99.90
11591;DHT22;5851;54.050;9.974;2024-01-16T12:55:32;0.70;99.90
11591;DHT22;5851;54.050;9.974;2024-01-16T12:58:15;0.70;99.90
11591;DHT22;5851;54.050;9.974;2024-01-16T13:00:44;0.70;99.90
11591;DHT22;5851;54.050;9.974;2024-01-16T13:03:18;0.70;99.90
11591;DHT22;5851;54.050;9.974;2024-01-16T13:05:55;0.80;99.90
11591;DHT22;5851;54.050;9.974;2024-01-16T13:08:23;0.70;99.90
11591;DHT22;5851;54.050;9.974;2024-01-16T13:11:02;0.70;99.90
11591;DHT22;5851;54.050;9.974;2024-01-16T13:13:30;0.70;99.90
11591;DHT22;5851;54.050;9.974;2024-01-16T13:16:00;0.70;99.90
11591;DHT22;5851;54.050;9.974;2024-01-16T13:18:28;0.60;99.90
11591;DHT22;5851;54.050;9.974;2024-01-16T13:20:57;0.70;99.90
11591;DHT22;5851;54.050;9.974;2024-01-16T13:23:25;0.70;99.90
11591;DHT22;5851;54.050;9.974;2024-01-16T13:25:54;0.70;99.90
11591;DHT22;5851;54.050;9.974;2024-01-16T13:28:22;0.70;99.90
11591;DHT22;5851;54.050;9.974;2024-01-16T13:30:50;0.80;99.90
11591;DHT22;5851;54.050;9.974;2024-01-16T13:33:19;0.80;99.90
11591;DHT22;5851;54.050;9.974;2024-01-16T13:35:47;0.90;99.90
11591;DHT22;5851;54.050;9.974;2024-01-16T13:38:14;0.80;99.90
11591;DHT22;5851;54.050;9.974;2024-01-16T13:40:42;0.70;99.90
11591;DHT22;5851;54.050;9.974;2024-01-16T13:43:09;0.70;99.90
11591;DHT22;5851;54.050;9.974;2024-01-16T13:45:37;0.80;99.90
11591;DHT22;5851;54.050;9.974;2024-01-16T13:48:05;0.70;99.90
11591;DHT22;5851;54.050;9.974;2024-01-16T13:50:34;0.70;99.90
11591;DHT22;5851;54.050;9.974;2024-01-16T13:53:01;0.70;99.90
11591;DHT22;5851;54.050;9.974;2024-01-16T13:55:28;0.70;99.90
11591;DHT22;5851;54.050;9.974;2024-01-16T13:57:57;0.70;99.90
11591;DHT22;5851;54.050;9.974;2024-01-16T14:00:30;0.60;99.90
11591;DHT22;5851;54.050;9.974;2024-01-16T14:02:57;0.70;99.90
11591;DHT22;5851;54.050;9.974;2024-01-16T14:05:25;0.80;99.90
11591;DHT22;5851;54.050;9.974;2024-01-16T14:07:53;0.80;99.90
11591;DHT22;5851;54.050;9.974;2024-01-16T14:10:21;0.80;99.90
11591;DHT22;5851;54.050;9.974;2024-01-16T14:12:51;0.80;99.90
11591;DHT22;5851;54.050;9.974;2024-01-16T14:15:19;0.80;99.90
11591;DHT22;5851;54.050;9.974;2024-01-16T14:17:48;0.80;99.90
11591;DHT22;5851;54.050;9.974;2024-01-16T14:20:16;0.80;99.90
11591;DHT22;5851;54.050;9.974;2024-01-16T14:22:48;0.80;99.90
11591;DHT22;5851;54.050;9.974;2024-01-16T14:25:17;0.80;99.90
11591;DHT22;5851;54.050;9.974;2024-01-16T14:27:47;0.90;99.90
11591;DHT22;5851;54.050;9.974;2024-01-16T14:30:15;0.90;99.90
11591;DHT22;5851;54.050;9.974;2024-01-16T14:32:44;0.80;99.90
11591;DHT22;5851;54.050;9.974;2024-01-16T14:35:13;0.80;99.90
11591;DHT22;5851;54.050;9.974;2024-01-16T14:37:42;0.90;99.90
11591;DHT22;5851;54.050;9.974;2024-01-16T14:40:10;0.90;99.90
11591;DHT22;5851;54.050;9.974;2024-01-16T14:42:42;0.90;99.90
11591;DHT22;5851;54.050;9.974;2024-01-16T14:45:10;0.90;99.90
11591;DHT22;5851;54.050;9.974;2024-01-16T14:47:38;0.90;99.90
11591;DHT22;5851;54.050;9.974;2024-01-16T14:50:08;0.90;99.90
11591;DHT22;5851;54.050;9.974;2024-01-16T14:52:35;0.90;99.90
11591;DHT22;5851;54.050;9.974;2024-01-16T14:55:03;0.80;99.90
11591;DHT22;5851;54.050;9.974;2024-01-16T14:57:33;0.80;99.90
11591;DHT22;5851;54.050;9.974;2024-01-16T15:00:10;0.80;99.90
11591;DHT22;5851;54.050;9.974;2024-01-16T15:02:46;0.90;99.90
11591;DHT22;5851;54.050;9.974;2024-01-16T15:05:14;0.90;99.90
11591;DHT22;5851;54.050;9.974;2024-01-16T15:07:41;0.90;99.90
11591;DHT22;5851;54.050;9.974;2024-01-16T15:10:09;0.90;99.90
11591;DHT22;5851;54.050;9.974;2024-01-16T15:12:38;0.80;99.90
11591;DHT22;5851;54.050;9.974;2024-01-16T15:15:08;0.80;99.90
11591;DHT22;5851;54.050;9.974;2024-01-16T15:17:37;0.80;99.90
11591;DHT22;5851;54.050;9.974;2024-01-16T15:20:05;0.90;99.90
11591;DHT22;5851;54.050;9.974;2024-01-16T15:22:34;0.80;99.90
11591;DHT22;5851;54.050;9.974;2024-01-16T15:25:03;0.80;99.90
11591;DHT22;5851;54.050;9.974;2024-01-16T15:27:31;0.80;99.90
11591;DHT22;5851;54.050;9.974;2024-01-16T15:29:58;0.90;99.90
11591;DHT22;5851;54.050;9.974;2024-01-16T15:32:27;0.70;99.90
11591;DHT22;5851;54.050;9.974;2024-01-16T15:34:54;0.70;99.90
11591;DHT22;5851;54.050;9.974;2024-01-16T15:37:21;0.80;99.90
11591;DHT22;5851;54.050;9.974;2024-01-16T15:39:48;0.90;99.90
11591;DHT22;5851;54.050;9.974;2024-01-16T15:42:15;0.90;99.90
11591;DHT22;5851;54.050;9.974;2024-01-16T15:44:43;0.90;99.90
11591;DHT22;5851;54.050;9.974;2024-01-16T15:47:12;0.80;99.90
11591;DHT22;5851;54.050;9.974;2024-01-16T15:49:40;0.80;99.90
11591;DHT22;5851;54.050;9.974;2024-01-16T15:52:07;0.80;99.90
11591;DHT22;5851;54.050;9.974;2024-01-16T15:54:34;0.70;99.90
11591;DHT22;5851;54.050;9.974;2024-01-16T15:57:01;0.80;99.90
11591;DHT22;5851;54.050;9.974;2024-01-16T15:59:29;0.80;99.90